createdAt,value
2023-05-07T00:04:28.134Z,3.90
2023-05-07T00:09:35.145Z,6.88
2023-05-07T00:14:42.052Z,3.78
2023-05-07T00:19:50.080Z,6.88
2023-05-07T00:24:56.697Z,8.80
2023-05-07T00:30:04.125Z,4.95
2023-05-07T00:35:16.452Z,5.55
2023-05-07T00:40:23.332Z,3.73
2023-05-07T00:45:31.258Z,3.92
2023-05-07T00:50:39.559Z,4.35
2023-05-07T00:55:46.297Z,3.73
2023-05-07T01:00:53.181Z,4.68
2023-05-07T01:06:03.020Z,8.85
2023-05-07T01:11:10.773Z,3.15
2023-05-07T01:16:17.506Z,4.22
2023-05-07T01:21:29.403Z,4.18
2023-05-07T01:26:41.187Z,4.07
2023-05-07T01:31:50.062Z,3.88
2023-05-07T01:36:59.339Z,3.93
2023-05-07T01:42:08.275Z,4.28
2023-05-07T01:47:16.584Z,3.05
2023-05-07T01:52:23.053Z,2.33
2023-05-07T01:57:30.886Z,3.95
2023-05-07T02:02:37.877Z,2.88
2023-05-07T02:07:44.885Z,4.20
2023-05-07T02:12:56.635Z,2.63
2023-05-07T02:18:06.015Z,2.92
2023-05-07T02:23:13.076Z,2.70
2023-05-07T02:28:21.116Z,2.22
2023-05-07T02:38:47.714Z,8.00
2023-05-07T02:43:55.889Z,2.95
2023-05-07T02:49:02.903Z,1.63
2023-05-07T02:54:10.519Z,2.25
2023-05-07T02:59:18.448Z,2.15
2023-05-07T03:04:25.273Z,1.83
2023-05-07T03:09:32.164Z,1.92
2023-05-07T03:14:40.356Z,3.13
2023-05-07T03:19:46.885Z,1.45
2023-05-07T03:24:54.156Z,1.45
2023-05-07T03:30:02.684Z,2.28
2023-05-07T03:35:11.282Z,1.15
2023-05-07T03:40:19.433Z,1.30
2023-05-07T03:45:31.376Z,1.33
2023-05-07T03:50:50.103Z,2.05
2023-05-07T03:55:58.483Z,1.35
2023-05-07T04:01:07.958Z,1.95
2023-05-07T04:06:15.749Z,2.08
2023-05-07T04:16:32.239Z,1.92
2023-05-07T04:21:38.663Z,7.32
2023-05-07T04:26:45.125Z,2.17
2023-05-07T04:31:52.944Z,2.45
2023-05-07T04:37:02.282Z,3.70
2023-05-07T04:42:10.255Z,2.70
2023-05-07T04:47:18.242Z,1.13
2023-05-07T04:52:27.348Z,7.97
2023-05-07T04:57:35.216Z,3.63
2023-05-07T05:02:43.326Z,1.90
2023-05-07T05:07:53.056Z,1.15
2023-05-07T05:13:00.256Z,2.65
2023-05-07T05:18:10.393Z,4.18
2023-05-07T05:23:17.671Z,2.38
2023-05-07T05:28:24.370Z,4.07
2023-05-07T05:33:32.452Z,2.78
2023-05-07T05:38:43.454Z,2.90
2023-05-07T05:43:52.507Z,4.07
2023-05-07T05:49:01.160Z,3.83
2023-05-07T05:54:07.849Z,1.07
2023-05-07T05:59:15.002Z,3.17
2023-05-07T06:04:24.111Z,2.22
2023-05-07T06:09:30.578Z,1.75
2023-05-07T06:14:37.117Z,2.47
2023-05-07T06:19:45.365Z,2.97
2023-05-07T06:24:53.174Z,3.83
2023-05-07T06:30:02.623Z,1.88
2023-05-07T06:35:13.301Z,3.15
2023-05-07T06:40:21.376Z,4.18
2023-05-07T06:45:29.375Z,1.63
2023-05-07T06:50:38.552Z,1.15
2023-05-07T06:55:45.060Z,1.33
2023-05-07T07:00:52.926Z,1.30
2023-05-07T07:06:03.219Z,4.05
2023-05-07T07:11:13.019Z,3.65
2023-05-07T07:16:19.726Z,2.33
2023-05-07T07:21:28.033Z,1.10
2023-05-07T07:26:34.745Z,2.30
2023-05-07T07:31:42.104Z,1.58
2023-05-07T07:36:51.407Z,1.67
2023-05-07T07:41:59.749Z,1.40
2023-05-07T07:47:09.121Z,1.80
2023-05-07T07:52:17.229Z,4.82
2023-05-07T07:57:25.127Z,6.53
2023-05-07T08:02:31.932Z,2.90
2023-05-07T08:07:40.240Z,2.90
2023-05-07T08:12:46.985Z,2.03
2023-05-07T08:17:53.967Z,1.52
2023-05-07T08:23:02.297Z,2.45
2023-05-07T08:28:10.152Z,1.70
2023-05-07T08:33:18.916Z,3.20
2023-05-07T08:38:27.513Z,5.95
2023-05-07T08:43:36.281Z,2.43
2023-05-07T08:48:43.926Z,3.75
2023-05-07T08:53:55.803Z,4.97
2023-05-07T08:59:08.096Z,3.63
2023-05-07T09:04:17.936Z,2.47
2023-05-07T09:09:27.380Z,2.95
2023-05-07T09:14:35.714Z,2.35
2023-05-07T09:19:44.222Z,1.23
2023-05-07T09:24:53.781Z,5.75
2023-05-07T09:30:08.563Z,2.03
2023-05-07T09:35:23.028Z,2.78
2023-05-07T09:40:38.094Z,1.67
2023-05-07T09:45:52.810Z,4.10
2023-05-07T09:51:09.301Z,4.18
2023-05-07T09:56:20.414Z,3.40
2023-05-07T10:01:28.489Z,3.17
2023-05-07T10:06:36.308Z,4.07
2023-05-07T10:11:45.467Z,1.83
2023-05-07T10:16:54.152Z,2.05
2023-05-07T10:22:08.142Z,2.40
2023-05-07T10:27:24.094Z,3.17
2023-05-07T10:32:43.869Z,4.70
2023-05-07T10:37:56.954Z,2.90
2023-05-07T10:43:10.873Z,4.10
2023-05-07T10:48:37.964Z,1.90
2023-05-07T10:53:50.524Z,3.17
2023-05-07T10:59:43.515Z,1.92
2023-05-07T11:05:24.248Z,2.87
2023-05-07T11:10:55.114Z,4.13
2023-05-07T11:16:26.238Z,5.28
2023-05-07T11:21:46.053Z,2.85
2023-05-07T11:27:11.230Z,1.90
2023-05-07T11:32:26.244Z,1.73
2023-05-07T11:37:35.485Z,2.10
2023-05-07T11:42:45.095Z,1.70
2023-05-07T11:47:53.559Z,2.17
2023-05-07T11:53:00.389Z,1.48
2023-05-07T11:58:08.966Z,2.00
2023-05-07T12:03:19.453Z,1.85
2023-05-07T12:08:26.158Z,1.55
2023-05-07T12:13:33.345Z,3.80
2023-05-07T12:18:42.771Z,3.13
2023-05-07T12:23:50.537Z,2.28
2023-05-07T12:28:57.896Z,1.42
2023-05-07T12:34:07.753Z,2.85
2023-05-07T12:39:15.762Z,2.45
2023-05-07T12:44:24.838Z,2.63
2023-05-07T12:49:33.626Z,9.18
2023-05-07T12:54:41.778Z,3.90
2023-05-07T12:59:48.760Z,4.45
2023-05-07T13:04:57.426Z,1.20
2023-05-07T13:10:04.710Z,0.98
2023-05-07T13:15:13.575Z,5.70
2023-05-07T13:20:22.270Z,1.83
2023-05-07T13:25:29.139Z,3.00
2023-05-07T13:30:36.256Z,5.20
2023-05-07T13:35:45.000Z,3.67
2023-05-07T13:40:51.996Z,5.45
2023-05-07T13:45:59.290Z,6.53
2023-05-07T13:51:08.184Z,5.63
2023-05-07T13:56:15.626Z,5.68
2023-05-07T14:01:23.639Z,2.03
2023-05-07T14:06:33.193Z,1.10
2023-05-07T14:11:40.039Z,1.70
2023-05-07T14:16:48.511Z,4.32
2023-05-07T14:21:59.377Z,3.45
2023-05-07T14:27:07.100Z,3.90
2023-05-07T14:32:14.098Z,3.38
2023-05-07T14:37:25.708Z,1.73
2023-05-07T14:42:32.996Z,1.58
2023-05-07T14:47:40.136Z,2.90
2023-05-07T14:52:48.722Z,5.95
2023-05-07T14:57:55.696Z,1.63
2023-05-07T15:03:09.716Z,4.13
2023-05-07T15:08:18.350Z,4.78
2023-05-07T15:13:25.234Z,2.40
2023-05-07T15:18:32.090Z,3.97
2023-05-07T15:23:40.677Z,3.97
2023-05-07T15:28:47.550Z,2.65
2023-05-07T15:33:54.524Z,6.80
2023-05-07T15:39:05.660Z,7.50
2023-05-07T15:44:12.371Z,3.80
2023-05-07T15:49:20.355Z,5.95
2023-05-07T15:54:28.628Z,6.40
2023-05-07T15:59:36.598Z,8.30
2023-05-07T16:04:43.669Z,1.77
2023-05-07T16:09:51.818Z,4.10
2023-05-07T16:14:59.856Z,3.75
2023-05-07T16:20:09.520Z,12.07
2023-05-07T16:25:17.998Z,5.93
2023-05-07T16:30:25.045Z,6.47
2023-05-07T16:35:32.385Z,5.05
2023-05-07T16:40:42.204Z,4.28
2023-05-07T16:45:49.281Z,6.05
2023-05-07T16:50:57.951Z,6.03
2023-05-07T16:56:08.998Z,5.85
2023-05-07T17:01:16.909Z,6.80
2023-05-07T17:06:23.551Z,4.60
2023-05-07T17:11:34.258Z,7.18
2023-05-07T17:16:40.863Z,19.40
2023-05-07T17:21:47.525Z,24.98
2023-05-07T17:26:55.649Z,12.88
2023-05-07T17:32:02.894Z,8.65
2023-05-07T17:37:09.932Z,8.98
2023-05-07T17:42:18.550Z,4.20
2023-05-07T17:47:25.416Z,5.57
2023-05-07T17:52:32.932Z,6.00
2023-05-07T17:57:42.258Z,4.32
2023-05-07T18:02:49.284Z,5.10
2023-05-07T18:07:56.522Z,4.43
2023-05-07T18:13:05.193Z,3.33
2023-05-07T18:18:12.867Z,3.92
2023-05-07T18:23:20.494Z,6.97
2023-05-07T18:28:29.095Z,17.50
2023-05-07T18:33:36.244Z,16.52
2023-05-07T18:38:46.226Z,31.80
2023-05-07T18:43:58.243Z,49.83
2023-05-07T18:49:06.260Z,55.75
2023-05-07T18:54:15.449Z,45.25
2023-05-07T18:59:23.706Z,32.35
2023-05-07T19:04:32.498Z,28.00
2023-05-07T19:14:57.623Z,22.23
2023-05-07T19:25:21.330Z,23.25
2023-05-07T19:30:30.462Z,16.77
2023-05-07T19:35:39.726Z,15.85
2023-05-07T19:40:47.793Z,24.35
2023-05-07T19:45:56.900Z,20.90
2023-05-07T19:51:04.114Z,30.95
2023-05-07T19:56:14.393Z,26.30
2023-05-07T20:01:29.105Z,24.67
2023-05-07T20:06:35.868Z,42.75
2023-05-07T20:11:43.400Z,39.85
2023-05-07T20:16:51.781Z,36.88
2023-05-07T20:22:00.495Z,44.25
2023-05-07T20:27:07.566Z,56.13
2023-05-07T20:32:16.239Z,82.18
2023-05-07T20:37:25.905Z,42.58
2023-05-07T20:42:33.096Z,50.95
2023-05-07T20:47:43.221Z,40.92
2023-05-07T20:52:50.208Z,55.05
2023-05-07T20:57:57.369Z,45.67
2023-05-07T21:03:06.667Z,53.03
2023-05-07T21:08:13.560Z,39.38
2023-05-07T21:13:20.606Z,37.83
2023-05-07T21:18:31.167Z,56.55
2023-05-07T21:23:38.459Z,46.17
2023-05-07T21:28:45.638Z,61.58
2023-05-07T21:34:13.909Z,45.95
2023-05-07T21:39:23.011Z,44.70
2023-05-07T21:44:34.632Z,52.88
2023-05-07T21:49:43.137Z,57.97
2023-05-07T21:54:49.862Z,79.10
2023-05-07T21:59:56.380Z,62.03
2023-05-07T22:05:04.879Z,67.70
2023-05-07T22:10:13.766Z,75.43
2023-05-07T22:15:21.331Z,61.65
2023-05-07T22:20:30.358Z,55.63
2023-05-07T22:25:37.219Z,27.65
2023-05-07T22:30:44.162Z,41.05
2023-05-07T22:35:52.588Z,49.58
2023-05-07T22:41:00.445Z,17.13
2023-05-07T22:46:08.359Z,16.13
2023-05-07T22:51:17.448Z,17.33
2023-05-07T23:01:30.540Z,12.10
2023-05-07T23:06:38.995Z,36.25
2023-05-07T23:11:47.291Z,33.67
2023-05-07T23:16:53.993Z,78.97
2023-05-07T23:22:02.216Z,51.65
2023-05-07T23:27:09.568Z,57.85
2023-05-07T23:32:16.466Z,45.95
2023-05-07T23:37:26.288Z,58.13
2023-05-07T23:42:32.999Z,43.88
2023-05-07T23:47:39.710Z,50.22
2023-05-07T23:52:48.122Z,45.83
2023-05-07T23:57:54.787Z,61.20
